createdAt,value
2022-10-20T00:01:17.336Z,101122.38
2022-10-20T00:03:49.592Z,101140.25
2022-10-20T00:06:27.489Z,101133.13
2022-10-20T00:09:00.749Z,101135.63
2022-10-20T00:11:33.619Z,101144.41
2022-10-20T00:14:05.949Z,101142.47
2022-10-20T00:16:40.734Z,101151.03
2022-10-20T00:19:12.651Z,101156.03
2022-10-20T00:21:43.958Z,101162.34
2022-10-20T00:24:15.254Z,101162.66
2022-10-20T00:26:46.610Z,101166.75
2022-10-20T00:29:19.487Z,101166.75
2022-10-20T00:31:50.839Z,101164.81
2022-10-20T00:34:21.590Z,101175.31
2022-10-20T00:36:52.938Z,101178.59
2022-10-20T00:39:23.646Z,101175.31
2022-10-20T00:41:54.798Z,101190.44
2022-10-20T00:44:43.893Z,101189.63
2022-10-20T00:47:23.126Z,101191.53
2022-10-20T00:49:55.364Z,101195.72
2022-10-20T00:52:26.638Z,101204.31
2022-10-20T00:54:57.287Z,101192.47
2022-10-20T00:57:29.133Z,101202.03
2022-10-20T01:00:00.633Z,101201.25
2022-10-20T01:02:32.045Z,101209.81
2022-10-20T01:05:03.937Z,101211.44
2022-10-20T01:07:35.690Z,101210.31
2022-10-20T01:10:09.489Z,101214.72
2022-10-20T01:12:47.274Z,101213.91
2022-10-20T01:15:33.275Z,101222.44
2022-10-20T01:18:16.226Z,101233.19
2022-10-20T01:21:07.339Z,101239.50
2022-10-20T01:23:55.001Z,101236.47
2022-10-20T01:26:32.413Z,101236.16
2022-10-20T01:29:24.932Z,101242.50
2022-10-20T01:31:59.308Z,101246.38
2022-10-20T01:34:37.090Z,101248.84
2022-10-20T01:37:34.363Z,101254.34
2022-10-20T01:40:29.438Z,101258.44
2022-10-20T01:43:05.380Z,101258.75
2022-10-20T01:45:40.284Z,101256.00
2022-10-20T01:48:14.618Z,101261.19
2022-10-20T01:50:47.058Z,101268.06
2022-10-20T01:53:18.912Z,101270.81
2022-10-20T01:55:55.467Z,101265.00
2022-10-20T01:58:32.609Z,101270.50
2022-10-20T02:01:19.279Z,101272.47
2022-10-20T02:04:03.655Z,101270.50
2022-10-20T02:06:54.792Z,101276.53
2022-10-20T02:09:35.525Z,101280.94
2022-10-20T02:12:08.643Z,101283.69
2022-10-20T02:14:41.984Z,101284.22
2022-10-20T02:17:19.317Z,101287.25
2022-10-20T02:19:54.951Z,101283.09
2022-10-20T02:22:27.245Z,101283.38
2022-10-20T02:24:58.602Z,101290.53
2022-10-20T02:27:35.837Z,101289.13
2022-10-20T02:30:14.690Z,101290.25
2022-10-20T02:32:52.239Z,101290.25
2022-10-20T02:35:29.411Z,101295.44
2022-10-20T02:38:01.397Z,101286.88
2022-10-20T02:40:33.044Z,101292.91
2022-10-20T02:43:04.409Z,101297.81
2022-10-20T02:45:35.130Z,101295.06
2022-10-20T02:48:07.922Z,101289.25
2022-10-20T02:50:39.910Z,101284.56
2022-10-20T02:53:11.267Z,101284.56
2022-10-20T02:55:42.311Z,101281.78
2022-10-20T02:58:13.960Z,101277.41
2022-10-20T03:00:45.295Z,101278.72
2022-10-20T03:03:16.063Z,101277.09
2022-10-20T03:05:47.705Z,101277.31
2022-10-20T03:08:19.196Z,101277.09
2022-10-20T03:10:50.194Z,101273.44
2022-10-20T03:13:21.541Z,101269.06
2022-10-20T03:15:53.052Z,101264.88
2022-10-20T03:18:24.517Z,101264.06
2022-10-20T03:20:57.056Z,101255.47
2022-10-20T03:23:28.957Z,101259.03
2022-10-20T03:26:11.434Z,101253.75
2022-10-20T03:28:43.570Z,101248.25
2022-10-20T03:31:14.975Z,101241.88
2022-10-20T03:33:45.752Z,101246.28
2022-10-20T03:36:17.203Z,101232.50
2022-10-20T03:38:48.619Z,101234.13
2022-10-20T03:41:20.144Z,101236.28
2022-10-20T03:43:51.476Z,101227.50
2022-10-20T03:46:22.806Z,101224.13
2022-10-20T03:48:53.659Z,101215.88
2022-10-20T03:51:25.241Z,101229.66
2022-10-20T03:53:56.586Z,101217.19
2022-10-20T03:56:28.021Z,101207.28
2022-10-20T03:58:59.547Z,101205.34
2022-10-20T04:01:35.554Z,101210.75
2022-10-20T04:04:07.043Z,101202.47
2022-10-20T04:06:38.481Z,101195.03
2022-10-20T04:09:10.057Z,101194.72
2022-10-20T04:11:41.593Z,101189.72
2022-10-20T04:14:12.408Z,101188.91
2022-10-20T04:16:44.817Z,101177.06
2022-10-20T04:19:16.313Z,101170.13
2022-10-20T04:21:47.812Z,101176.44
2022-10-20T04:24:19.231Z,101166.22
2022-10-20T04:29:27.194Z,101164.81
2022-10-20T04:31:58.086Z,101157.66
2022-10-20T04:34:29.494Z,101158.97
2022-10-20T04:37:02.416Z,101155.97
2022-10-20T04:39:33.821Z,101148.81
2022-10-20T04:42:05.235Z,101138.56
2022-10-20T04:44:36.000Z,101126.75
2022-10-20T04:47:07.417Z,101132.44
2022-10-20T04:49:38.962Z,101110.72
2022-10-20T04:52:10.646Z,101109.25
2022-10-20T04:54:41.987Z,101106.78
2022-10-20T04:57:13.844Z,101094.53
2022-10-20T04:59:45.392Z,101090.47
2022-10-20T05:02:16.961Z,101087.69
2022-10-20T05:04:48.414Z,101086.59
2022-10-20T05:07:19.291Z,101083.19
2022-10-20T05:09:51.672Z,101075.41
2022-10-20T05:12:23.147Z,101078.50
2022-10-20T05:14:54.607Z,101067.13
2022-10-20T05:17:25.978Z,101071.25
2022-10-20T05:19:56.768Z,101066.00
2022-10-20T05:22:28.108Z,101066.53
2022-10-20T05:25:12.677Z,101063.25
2022-10-20T05:27:50.365Z,101055.50
2022-10-20T05:30:21.729Z,101061.00
2022-10-20T05:32:53.173Z,101052.44
2022-10-20T05:35:24.085Z,101038.94
2022-10-20T05:37:55.550Z,101041.41
2022-10-20T05:40:27.738Z,101041.41
2022-10-20T05:43:00.451Z,101039.13
2022-10-20T05:45:31.894Z,101036.88
2022-10-20T05:48:03.198Z,101022.44
2022-10-20T05:50:34.021Z,101016.94
2022-10-20T05:53:05.585Z,101018.38
2022-10-20T05:55:37.031Z,101011.75
2022-10-20T05:58:08.345Z,101012.88
2022-10-20T06:00:44.585Z,101001.50
2022-10-20T06:03:17.491Z,100990.47
2022-10-20T06:05:50.448Z,100990.81
2022-10-20T06:08:21.903Z,100987.22
2022-10-20T06:10:53.244Z,100983.81
2022-10-20T06:13:24.021Z,100979.13
2022-10-20T06:15:55.449Z,100975.88
2022-10-20T06:18:26.819Z,100978.31
2022-10-20T06:21:07.117Z,100978.81
2022-10-20T06:23:38.503Z,100969.41
2022-10-20T06:26:11.920Z,100964.41
2022-10-20T06:28:44.284Z,100964.69
2022-10-20T06:31:21.906Z,100961.63
2022-10-20T06:33:54.370Z,100946.03
2022-10-20T06:36:26.515Z,100937.94
2022-10-20T06:38:59.857Z,100947.34
2022-10-20T06:41:31.697Z,100939.06
2022-10-20T06:44:03.319Z,100935.78
2022-10-20T06:46:36.286Z,100928.31
2022-10-20T06:49:10.634Z,100921.19
2022-10-20T06:51:42.675Z,100924.44
2022-10-20T06:54:14.120Z,100923.13
2022-10-20T06:56:45.585Z,100923.63
2022-10-20T06:59:17.029Z,100917.50
2022-10-20T07:01:48.583Z,100910.50
2022-10-20T07:04:20.148Z,100914.22
2022-10-20T07:06:51.522Z,100908.72
2022-10-20T07:09:23.591Z,100908.09
2022-10-20T07:11:56.311Z,100909.72
2022-10-20T07:14:31.561Z,100899.81
2022-10-20T07:17:04.000Z,100895.59
2022-10-20T07:20:11.546Z,100891.19
2022-10-20T07:22:42.810Z,100894.28
2022-10-20T07:25:14.130Z,100890.06
2022-10-20T07:27:45.401Z,100878.53
2022-10-20T07:30:16.750Z,100884.06
2022-10-20T07:32:48.161Z,100876.09
2022-10-20T07:35:19.619Z,100878.88
2022-10-20T07:37:50.400Z,100876.09
2022-10-20T07:40:21.901Z,100869.13
2022-10-20T07:42:53.157Z,100873.00
2022-10-20T07:45:24.564Z,100863.94
2022-10-20T07:47:55.409Z,100854.19
2022-10-20T07:50:27.572Z,100860.34
2022-10-20T07:52:59.125Z,100851.78
2022-10-20T07:55:38.579Z,100850.66
2022-10-20T07:58:10.568Z,100848.69
2022-10-20T08:00:42.046Z,100852.56
2022-10-20T08:03:13.457Z,100847.56
2022-10-20T08:05:44.906Z,100858.59
2022-10-20T08:08:16.287Z,100847.38
2022-10-20T08:10:47.757Z,100844.28
2022-10-20T08:13:18.502Z,100848.84
2022-10-20T08:15:55.297Z,100848.34
2022-10-20T08:18:35.400Z,100849.81
2022-10-20T08:21:21.246Z,100842.53
2022-10-20T08:23:53.483Z,100846.09
2022-10-20T08:26:27.408Z,100854.19
2022-10-20T08:28:59.003Z,100844.47
2022-10-20T08:31:30.579Z,100845.28
2022-10-20T08:34:02.705Z,100849.97
2022-10-20T08:36:34.399Z,100835.25
2022-10-20T08:39:06.691Z,100847.22
2022-10-20T08:44:41.435Z,100851.31
2022-10-20T08:47:32.619Z,100853.25
2022-10-20T08:50:07.923Z,100846.09
2022-10-20T08:52:39.651Z,100852.75
2022-10-20T08:55:14.321Z,100857.47
2022-10-20T08:57:45.832Z,100849.34
2022-10-20T09:00:24.531Z,100852.44
2022-10-20T09:02:57.014Z,100851.13
2022-10-20T09:05:31.221Z,100858.75
2022-10-20T09:08:02.379Z,100863.66
2022-10-20T09:10:39.870Z,100858.75
2022-10-20T09:13:23.737Z,100863.66
2022-10-20T09:16:03.332Z,100861.69
2022-10-20T09:18:36.350Z,100869.19
2022-10-20T09:21:24.268Z,100864.78
2022-10-20T09:24:04.278Z,100869.19
2022-10-20T09:26:54.666Z,100870.81
2022-10-20T09:29:39.710Z,100870.31
2022-10-20T09:32:56.671Z,100873.88
2022-10-20T09:35:38.731Z,100879.41
2022-10-20T09:38:25.161Z,100879.72
2022-10-20T09:41:13.604Z,100887.47
2022-10-20T09:43:57.143Z,100878.59
2022-10-20T09:46:32.264Z,100880.03
2022-10-20T09:49:03.160Z,100884.94
2022-10-20T09:51:35.831Z,100889.13
2022-10-20T09:54:21.298Z,100886.84
2022-10-20T09:56:52.658Z,100886.53
2022-10-20T09:59:30.279Z,100889.28
2022-10-20T10:02:04.797Z,100891.59
2022-10-20T10:04:37.662Z,100898.41
2022-10-20T10:07:29.067Z,100903.09
2022-10-20T10:10:10.554Z,100898.91
2022-10-20T10:12:41.538Z,100903.91
2022-10-20T10:15:32.191Z,100910.06
2022-10-20T10:18:14.260Z,100906.19
2022-10-20T10:20:45.408Z,100912.53
2022-10-20T10:23:23.843Z,100911.19
2022-10-20T10:25:59.246Z,100914.78
2022-10-20T10:28:40.687Z,100919.97
2022-10-20T10:31:20.530Z,100920.31
2022-10-20T10:34:10.010Z,100929.88
2022-10-20T10:36:41.136Z,100924.38
2022-10-20T10:39:17.499Z,100930.06
2022-10-20T10:42:25.409Z,100932.03
2022-10-20T10:45:05.294Z,100931.69
2022-10-20T10:47:51.957Z,100937.22
2022-10-20T10:50:43.417Z,100931.50
2022-10-20T10:53:13.895Z,100937.03
2022-10-20T10:56:03.109Z,100928.25
2022-10-20T10:58:53.139Z,100929.38
2022-10-20T11:01:42.400Z,100935.72
2022-10-20T11:04:27.098Z,100932.13
2022-10-20T11:06:58.284Z,100939.91
2022-10-20T11:10:01.314Z,100949.03
2022-10-20T11:12:56.259Z,100943.00
2022-10-20T11:15:43.059Z,100953.72
2022-10-20T11:18:16.953Z,100955.69
2022-10-20T11:21:18.145Z,100958.72
2022-10-20T11:24:09.420Z,100967.00
2022-10-20T11:26:46.221Z,100962.00
2022-10-20T11:29:35.194Z,100959.75
2022-10-20T11:32:08.726Z,100970.78
2022-10-20T11:34:43.811Z,100979.56
2022-10-20T11:37:26.398Z,100973.25
2022-10-20T11:40:08.648Z,100983.44
2022-10-20T11:43:07.577Z,100986.72
2022-10-20T11:45:40.828Z,100991.72
2022-10-20T11:48:36.682Z,100996.13
2022-10-20T11:51:42.144Z,101003.28
2022-10-20T11:54:54.097Z,101003.28
2022-10-20T11:57:43.931Z,101010.94
2022-10-20T12:00:51.831Z,101015.84
2022-10-20T12:03:45.994Z,101026.38
2022-10-20T12:06:47.240Z,101027.50
2022-10-20T12:09:42.311Z,101038.53
2022-10-20T12:12:17.481Z,101044.56
2022-10-20T12:14:58.098Z,101045.19
2022-10-20T12:17:38.498Z,101053.13
2022-10-20T12:20:24.859Z,101057.63
2022-10-20T12:22:58.432Z,101061.56
2022-10-20T12:25:29.256Z,101068.69
2022-10-20T12:28:27.428Z,101069.50
2022-10-20T12:31:03.623Z,101075.22
2022-10-20T12:34:06.655Z,101074.19
2022-10-20T12:36:41.171Z,101083.31
2022-10-20T12:39:32.099Z,101082.69
2022-10-20T12:42:08.056Z,101085.97
2022-10-20T12:44:47.300Z,101093.13
2022-10-20T12:47:30.774Z,101091.47
2022-10-20T12:50:06.412Z,101103.66
2022-10-20T12:52:42.184Z,101103.66
2022-10-20T12:58:20.380Z,101120.00
2022-10-20T13:01:22.061Z,101119.81
2022-10-20T13:03:55.541Z,101128.09
2022-10-20T13:06:26.380Z,101132.81
2022-10-20T13:09:06.236Z,101135.25
2022-10-20T13:11:43.425Z,101136.69
2022-10-20T13:14:25.570Z,101144.97
2022-10-20T13:17:19.594Z,101146.28
2022-10-20T13:20:18.073Z,101147.28
2022-10-20T13:22:54.386Z,101158.84
2022-10-20T13:25:47.876Z,101158.84
2022-10-20T13:28:23.762Z,101159.97
2022-10-20T13:31:18.975Z,101169.56
2022-10-20T13:34:07.173Z,101166.28
2022-10-20T13:36:40.897Z,101168.44
2022-10-20T13:39:30.325Z,101178.16
2022-10-20T13:42:27.663Z,101183.88
2022-10-20T13:45:17.059Z,101185.44
2022-10-20T13:47:50.724Z,101184.41
2022-10-20T13:50:29.788Z,101189.91
2022-10-20T13:53:06.162Z,101190.53
2022-10-20T13:56:19.460Z,101191.56
2022-10-20T13:59:08.778Z,101202.00
2022-10-20T14:01:40.188Z,101209.06
2022-10-20T14:04:36.191Z,101196.47
2022-10-20T14:07:15.970Z,101202.81
2022-10-20T14:09:48.467Z,101215.28
2022-10-20T14:12:28.869Z,101216.09
2022-10-20T14:15:02.457Z,101217.75
2022-10-20T14:17:35.343Z,101214.66
2022-10-20T14:20:27.926Z,101221.03
2022-10-20T14:23:01.140Z,101223.66
2022-10-20T14:25:34.155Z,101232.25
2022-10-20T14:28:07.459Z,101229.69
2022-10-20T14:30:41.169Z,101231.66
2022-10-20T14:33:18.962Z,101229.16
2022-10-20T14:35:56.094Z,101226.94
2022-10-20T14:38:35.640Z,101229.16
2022-10-20T14:41:09.848Z,101233.47
2022-10-20T14:43:50.911Z,101243.06
2022-10-20T14:46:33.629Z,101231.50
2022-10-20T14:49:04.562Z,101235.63
2022-10-20T14:51:56.109Z,101241.44
2022-10-20T14:54:39.788Z,101247.16
2022-10-20T14:57:13.485Z,101243.91
2022-10-20T14:59:59.004Z,101247.16
2022-10-20T15:02:33.327Z,101244.41
2022-10-20T15:05:45.352Z,101248.50
2022-10-20T15:08:21.171Z,101242.16
2022-10-20T15:10:52.197Z,101243.28
2022-10-20T15:13:32.844Z,101249.81
2022-10-20T15:16:05.745Z,101245.13
2022-10-20T15:18:39.434Z,101247.56
2022-10-20T15:21:11.538Z,101245.63
2022-10-20T15:23:42.474Z,101244.50
2022-10-20T15:26:17.233Z,101240.91
2022-10-20T15:28:52.867Z,101241.84
2022-10-20T15:31:27.162Z,101242.66
2022-10-20T15:33:59.562Z,101243.78
2022-10-20T15:36:37.812Z,101250.44
2022-10-20T15:39:10.094Z,101242.47
2022-10-20T15:41:42.209Z,101239.78
2022-10-20T15:44:19.210Z,101244.69
2022-10-20T15:46:50.739Z,101250.75
2022-10-20T15:49:21.728Z,101244.69
2022-10-20T15:51:55.491Z,101241.34
2022-10-20T15:54:26.451Z,101251.25
2022-10-20T15:56:57.407Z,101254.19
2022-10-20T15:59:28.227Z,101248.06
2022-10-20T16:01:59.201Z,101242.53
2022-10-20T16:04:30.548Z,101243.06
2022-10-20T16:07:03.117Z,101250.50
2022-10-20T16:09:34.306Z,101252.47
2022-10-20T16:12:05.299Z,101246.44
2022-10-20T16:14:36.439Z,101249.69
2022-10-20T16:17:07.004Z,101243.66
2022-10-20T16:19:38.227Z,101241.53
2022-10-20T16:22:08.614Z,101248.69
2022-10-20T16:24:39.392Z,101246.84
2022-10-20T16:27:10.202Z,101247.38
2022-10-20T16:29:40.992Z,101239.88
2022-10-20T16:32:11.843Z,101238.75
2022-10-20T16:34:42.654Z,101231.94
2022-10-20T16:37:13.640Z,101231.31
2022-10-20T16:39:44.546Z,101221.69
2022-10-20T16:42:15.681Z,101221.69
2022-10-20T16:44:46.746Z,101224.44
2022-10-20T16:47:17.754Z,101222.84
2022-10-20T16:49:48.550Z,101220.38
2022-10-20T16:52:19.396Z,101219.75
2022-10-20T16:54:50.631Z,101217.50
2022-10-20T16:57:21.403Z,101215.69
2022-10-20T16:59:55.252Z,101217.31
2022-10-20T17:02:26.181Z,101212.59
2022-10-20T17:04:57.095Z,101209.03
2022-10-20T17:07:29.669Z,101212.09
2022-10-20T17:10:00.640Z,101211.81
2022-10-20T17:12:31.571Z,101208.53
2022-10-20T17:15:02.167Z,101198.81
2022-10-20T17:17:32.856Z,101194.72
2022-10-20T17:20:03.782Z,101193.28
2022-10-20T17:22:34.954Z,101188.09
2022-10-20T17:25:05.838Z,101186.13
2022-10-20T17:27:36.881Z,101188.88
2022-10-20T17:30:08.142Z,101173.16
2022-10-20T17:32:38.904Z,101170.69
2022-10-20T17:35:10.484Z,101169.88
2022-10-20T17:37:41.345Z,101169.38
2022-10-20T17:40:12.605Z,101172.94
2022-10-20T17:42:43.744Z,101174.56
2022-10-20T17:45:14.432Z,101170.19
2022-10-20T17:47:45.332Z,101175.50
2022-10-20T17:50:16.164Z,101171.94
2022-10-20T17:52:47.167Z,101163.16
2022-10-20T17:55:18.049Z,101156.19
2022-10-20T17:57:48.973Z,101158.16
2022-10-20T18:00:31.785Z,101157.00
2022-10-20T18:03:10.600Z,101151.78
2022-10-20T18:05:41.402Z,101158.44
2022-10-20T18:08:12.185Z,101152.13
2022-10-20T18:10:46.627Z,101152.91
2022-10-20T18:13:17.583Z,101138.09
2022-10-20T18:15:48.455Z,101143.00
2022-10-20T18:18:19.305Z,101138.09
2022-10-20T18:21:00.181Z,101141.97
2022-10-20T18:23:33.430Z,101132.91
2022-10-20T18:26:09.718Z,101132.59
2022-10-20T18:28:45.817Z,101130.66
2022-10-20T18:31:22.803Z,101126.59
2022-10-20T18:34:02.615Z,101116.34
2022-10-20T18:36:42.007Z,101118.59
2022-10-20T18:39:17.704Z,101114.53
2022-10-20T18:41:49.133Z,101115.84
2022-10-20T18:44:21.785Z,101110.03
2022-10-20T18:46:54.069Z,101115.53
2022-10-20T18:49:25.057Z,101105.63
2022-10-20T18:51:56.028Z,101107.56
2022-10-20T18:54:26.990Z,101105.41
2022-10-20T18:56:57.830Z,101109.00
2022-10-20T18:59:29.402Z,101107.38
2022-10-20T19:02:00.238Z,101110.66
2022-10-20T19:04:31.157Z,101109.00
2022-10-20T19:07:02.061Z,101102.03
2022-10-20T19:09:32.856Z,101105.13
2022-10-20T19:12:08.205Z,101100.22
2022-10-20T19:14:41.418Z,101102.38
2022-10-20T19:17:12.430Z,101100.72
2022-10-20T19:19:45.776Z,101102.97
2022-10-20T19:22:16.764Z,101096.63
2022-10-20T19:24:47.621Z,101097.47
2022-10-20T19:27:27.176Z,101091.94
2022-10-20T19:29:58.691Z,101091.44
2022-10-20T19:32:29.685Z,101097.78
2022-10-20T19:35:00.686Z,101093.38
2022-10-20T19:37:49.371Z,101093.06
2022-10-20T19:40:20.533Z,101091.44
2022-10-20T19:42:51.391Z,101102.97
2022-10-20T19:45:22.047Z,101099.72
2022-10-20T19:47:52.877Z,101092.56
2022-10-20T19:50:23.496Z,101087.56
2022-10-20T19:52:57.959Z,101089.78
2022-10-20T19:55:29.680Z,101088.16
2022-10-20T19:58:00.650Z,101081.84
2022-10-20T20:00:31.580Z,101074.97
2022-10-20T20:03:02.505Z,101073.84
2022-10-20T20:05:33.588Z,101071.59
2022-10-20T20:08:04.521Z,101068.34
2022-10-20T20:10:36.025Z,101066.72
2022-10-20T20:13:07.607Z,101066.72
2022-10-20T20:15:37.811Z,101048.53
2022-10-20T20:18:08.762Z,101062.31
2022-10-20T20:20:41.792Z,101050.16
2022-10-20T20:23:13.044Z,101043.00
2022-10-20T20:25:45.884Z,101039.13
2022-10-20T20:28:16.824Z,101041.88
2022-10-20T20:30:47.672Z,101038.31
2022-10-20T20:33:18.467Z,101043.84
2022-10-20T20:35:49.483Z,101054.69
2022-10-20T20:38:20.304Z,101041.06
2022-10-20T20:40:52.377Z,101040.56
2022-10-20T20:43:23.532Z,101045.75
2022-10-20T20:45:54.587Z,101044.16
2022-10-20T20:48:25.577Z,101040.56
2022-10-20T20:51:00.708Z,101042.53
2022-10-20T20:56:08.034Z,101048.03
2022-10-20T20:58:38.970Z,101042.81
2022-10-20T21:01:14.126Z,101035.06
2022-10-20T21:03:46.099Z,101038.94
2022-10-20T21:06:25.689Z,101040.56
2022-10-20T21:09:04.804Z,101035.06
2022-10-20T21:11:35.583Z,101049.16
2022-10-20T21:14:07.092Z,101051.94
2022-10-20T21:16:40.232Z,101049.16
2022-10-20T21:19:12.852Z,101041.41
2022-10-20T21:21:47.182Z,101044.78
2022-10-20T21:24:18.406Z,101037.63
2022-10-20T21:26:49.651Z,101045.91
2022-10-20T21:29:20.890Z,101046.19
2022-10-20T21:31:51.519Z,101048.66
2022-10-20T21:34:22.432Z,101053.34
2022-10-20T21:36:53.369Z,101060.50
2022-10-20T21:39:24.271Z,101052.53
2022-10-20T21:41:55.387Z,101055.31
2022-10-20T21:44:26.239Z,101067.13
2022-10-20T21:46:57.240Z,101063.56
2022-10-20T21:49:28.581Z,101066.84
2022-10-20T21:52:00.190Z,101058.56
2022-10-20T21:54:32.263Z,101063.25
2022-10-20T21:57:03.407Z,101066.34
2022-10-20T21:59:34.836Z,101074.63
2022-10-20T22:02:05.902Z,101064.19
2022-10-20T22:04:36.733Z,101073.91
2022-10-20T22:07:09.260Z,101079.44
2022-10-20T22:09:40.142Z,101079.53
2022-10-20T22:12:11.121Z,101077.78
2022-10-20T22:14:43.772Z,101088.00
2022-10-20T22:17:17.394Z,101084.94
2022-10-20T22:19:49.183Z,101088.22
2022-10-20T22:22:20.178Z,101087.09
2022-10-20T22:24:51.457Z,101088.69
2022-10-20T22:27:41.506Z,101091.88
2022-10-20T22:30:13.795Z,101087.19
2022-10-20T22:32:44.641Z,101084.94
2022-10-20T22:35:15.630Z,101089.84
2022-10-20T22:37:46.602Z,101090.66
2022-10-20T22:40:17.570Z,101095.56
2022-10-20T22:42:49.077Z,101106.59
2022-10-20T22:45:20.099Z,101109.25
2022-10-20T22:47:51.125Z,101107.63
2022-10-20T22:50:22.710Z,101121.09
2022-10-20T22:52:56.577Z,101120.38
2022-10-20T22:55:27.449Z,101124.06
2022-10-20T23:00:34.373Z,101133.75
2022-10-20T23:03:04.970Z,101133.16
2022-10-20T23:05:36.602Z,101137.03
2022-10-20T23:09:50.641Z,101151.56
2022-10-20T23:12:21.515Z,101150.00
2022-10-20T23:14:52.482Z,101157.88
2022-10-20T23:17:23.232Z,101157.75
2022-10-20T23:19:54.156Z,101165.63
2022-10-20T23:22:25.039Z,101168.38
2022-10-20T23:24:56.113Z,101170.31
2022-10-20T23:27:26.906Z,101178.28
2022-10-20T23:29:57.693Z,101179.16
2022-10-20T23:32:28.566Z,101185.75
2022-10-20T23:34:59.345Z,101186.03
2022-10-20T23:37:30.112Z,101190.97
2022-10-20T23:40:00.876Z,101197.34
2022-10-20T23:42:31.783Z,101201.22
2022-10-20T23:45:02.545Z,101201.22
2022-10-20T23:47:33.413Z,101212.50
2022-10-20T23:50:04.010Z,101215.25
2022-10-20T23:52:35.068Z,101221.59
2022-10-20T23:55:06.506Z,101222.41
2022-10-20T23:57:37.783Z,101228.16
